Finleyville, Pennsylvania
Current Conditions -  °F | °C
As of 7:53 AM on Saturday 20 Dec 2014 (Local Time) from KAGC Reporting Station
Broken Clouds Broken Clouds  
Wind Chill: 18°   Ceiling: 2400
Heat Index: 25°   Visibility: 10mi
Dew Point: 16°   Wind: 6mph
Humidity: 69%   Direction: 30°NNE
Pressure: 30.24"   Gusts: NA
Location:  40.25°N, 80°W
Report Text: KAGC 201253Z AUTO 03005KT 10SM BKN024 M04/M09 A3024 RMK AO2 SLP261 T10391089 TSNO
Loading
Personal Weather Stations






























Interactive Weather Map New forecast layout! Learn more

10-Day Weather Forecast

Advertisements
Track Severe Weather on mobile